Ankara/Etimesgut, Turkey
Current Conditions -  °F | °C
As of 6:50 AM on Thursday 27 Nov 2014 (Local Time) from LTAC Reporting Station
Broken Clouds Broken Clouds  
Wind Chill: 36°   Ceiling: 9000
Heat Index: 36°   Visibility: 6mi
Dew Point: 30°   Wind: 1mph
Humidity: 81%   Direction: NA
Pressure: 30.06"   Gusts: NA
Location:  39.97°N, 32.68°E
Report Text: LTAC 270350Z VRB01KT 9999 SCT035 BKN090 02/M01 Q1018 NOSIG
Loading
Personal Weather Stations






























Interactive Weather Map New forecast layout! Learn more

10-Day Weather Forecast

Advertisements
Track Severe Weather on mobile